This is the latest recevied weather packets stored in our database for station/object K9RCP-24. If no packets are shown the sender has not sent any weather packets the latest 10 day(s).
| Time | Temp. | Humidity | Pressure | Rain* | Wind** | Luminosity | Snow |
|---|---|---|---|---|---|---|---|
| 1777609961 | 17.78° C | 59% | 1019 hPa | 0 mm | - | - | - |
| 1777609201 | 18.33° C | 57% | 1018.6 hPa | 0 mm | - | - | - |
| 1777607623 | 20° C | 51% | 1018.3 hPa | 0 mm | - | - | - |
| 1777606671 | 21.67° C | 40% | 1017.9 hPa | 0 mm | - | - | - |
| 1777606415 | 22.22° C | 39% | 1017.9 hPa | 0 mm | - | - | - |
| 1777606136 | 22.22° C | 38% | 1017.6 hPa | 0 mm | - | - | - |
| 1777606011 | 22.78° C | 38% | 1017.9 hPa | 0 mm | - | - | - |
| 1777605887 | 22.78° C | 37% | 1017.9 hPa | 0 mm | - | - | - |
| 1777605482 | 23.33° C | 36% | 1017.6 hPa | 0 mm | - | - | - |
| 1777603235 | 24.44° C | 35% | 1017.6 hPa | 0 mm | - | - | - |
| 1777602975 | 24.44° C | 35% | 1017.9 hPa | 0 mm | - | - | - |
| 1777602599 | 24.44° C | 34% | 1017.9 hPa | 0 mm | - | - | - |
| 1777601349 | 25° C | 34% | 1017.9 hPa | 0 mm | - | - | - |
| 1777601203 | 25° C | 34% | 1017.9 hPa | 0 mm | - | - | - |
| 1777600674 | 25.56° C | 33% | 1018.3 hPa | 0 mm | - | - | - |
| 1777600421 | 25.56° C | 33% | 1017.9 hPa | 0 mm | - | - | - |
| 1777600376 | 25.56° C | 32% | 1017.9 hPa | 0 mm | - | - | - |
| 1777598397 | 26.67° C | 30% | 1018.3 hPa | 0 mm | - | - | - |
| 1777597325 | 27.22° C | 29% | 1018.3 hPa | 0 mm | - | - | - |
| 1777596545 | 27.78° C | 29% | 1018.3 hPa | 0 mm | - | - | - |
| 1777596171 | 27.22° C | 28% | 1018.6 hPa | 0 mm | - | - | - |
| 1777595010 | 27.78° C | 29% | 1018.6 hPa | 0 mm | - | - | - |
| 1777594884 | 27.22° C | 30% | 1018.6 hPa | 0 mm | - | - | - |
| 1777594044 | 27.78° C | 30% | 1018.6 hPa | 0 mm | - | - | - |
| 1777593263 | 27.78° C | 30% | 1018.6 hPa | 0 mm | - | - | - |
* Rain latest hour (hover to see other rain measurements)
** Current wind speed in m/s (hover to see current wind gust speed)